Time;durP1;ratioP1;P1;durP2;ratioP2;P2;SDS_P1;SDS_P2;PMS_P1;PMS_P2;Temp;Humidity;BMP_temperature;BMP_pressure;BME280_temperature;BME280_humidity;BME280_pressure;Samples;Min_cycle;Max_cycle;Signal;HPM_P1;HPM_P2
2022/07/09 00:02:17;;;;;;;10.73;4.43;;;17.10;99.90;;;;;;5032515;28;20102;-62
2022/07/09 00:04:43;;;;;;;8.93;4.80;;;17.10;99.90;;;;;;5028768;28;20643;-62
2022/07/09 00:07:08;;;;;;;11.20;4.93;;;17.10;99.90;;;;;;5048037;28;20144;-62
2022/07/09 00:09:34;;;;;;;10.55;4.95;;;17.00;99.90;;;;;;5029054;28;20120;-62
2022/07/09 00:12:00;;;;;;;14.10;5.18;;;17.00;99.90;;;;;;5048603;28;20041;-62
2022/07/09 00:14:25;;;;;;;11.65;4.80;;;17.00;99.90;;;;;;5048003;28;20035;-64
2022/07/09 00:16:51;;;;;;;7.97;4.60;;;17.00;99.90;;;;;;5025721;28;20055;-65
2022/07/09 00:19:17;;;;;;;12.80;5.40;;;17.00;99.90;;;;;;5029768;28;20481;-62
2022/07/09 00:21:43;;;;;;;12.23;5.50;;;16.90;99.90;;;;;;5047446;28;20029;-62
2022/07/09 00:24:08;;;;;;;11.10;5.95;;;16.90;99.90;;;;;;5026896;28;20037;-64
2022/07/09 00:26:34;;;;;;;11.05;5.63;;;16.90;99.90;;;;;;5028260;28;20045;-62
2022/07/09 00:29:00;;;;;;;12.05;5.53;;;16.80;99.90;;;;;;5025734;28;20038;-62
2022/07/09 00:31:26;;;;;;;12.50;6.32;;;16.80;99.90;;;;;;5018513;28;20033;-62
2022/07/09 00:33:51;;;;;;;12.00;5.85;;;16.80;99.90;;;;;;5019488;28;20048;-62
2022/07/09 00:36:20;;;;;;;10.85;5.45;;;16.70;99.90;;;;;;5050114;28;20041;-62
2022/07/09 00:38:45;;;;;;;16.42;6.32;;;16.70;99.90;;;;;;5030241;28;20035;-62
2022/07/09 00:41:12;;;;;;;11.45;5.72;;;16.70;99.90;;;;;;5014263;28;20048;-63
2022/07/09 00:43:38;;;;;;;14.70;6.38;;;16.60;99.90;;;;;;5024879;28;20056;-63
2022/07/09 00:46:03;;;;;;;12.18;6.05;;;16.70;99.90;;;;;;5049249;28;20069;-63
2022/07/09 00:48:29;;;;;;;12.63;6.20;;;16.70;99.90;;;;;;5032755;28;20037;-62
2022/07/09 00:50:55;;;;;;;11.02;6.47;;;16.70;99.90;;;;;;5026625;28;20065;-62
2022/07/09 00:53:24;;;;;;;10.80;6.30;;;16.70;99.90;;;;;;5034795;28;20622;-62
2022/07/09 00:55:51;;;;;;;10.93;6.07;;;16.70;99.90;;;;;;5028239;28;20469;-63
2022/07/09 00:58:19;;;;;;;13.20;6.80;;;16.70;99.90;;;;;;5028363;28;20033;-62
2022/07/09 01:00:45;;;;;;;14.68;7.20;;;16.70;99.90;;;;;;5030010;28;20043;-62
2022/07/09 01:03:11;;;;;;;12.63;6.25;;;16.60;99.90;;;;;;5030391;28;20045;-62
2022/07/09 01:05:36;;;;;;;10.65;6.35;;;16.70;99.90;;;;;;5050118;28;20163;-62
2022/07/09 01:08:06;;;;;;;18.52;7.00;;;16.70;99.90;;;;;;5043817;28;20433;-62
2022/07/09 01:10:33;;;;;;;10.75;5.95;;;16.60;99.90;;;;;;5036554;28;20071;-62
2022/07/09 01:13:00;;;;;;;13.32;5.82;;;16.60;99.90;;;;;;5033715;28;20048;-62
2022/07/09 01:15:26;;;;;;;12.57;6.30;;;16.60;99.90;;;;;;5032376;28;20044;-62
2022/07/09 01:17:52;;;;;;;10.63;5.95;;;16.60;99.90;;;;;;5032328;28;20115;-62
2022/07/09 01:20:22;;;;;;;9.00;5.65;;;16.60;99.90;;;;;;5032567;28;20044;-61
2022/07/09 01:22:47;;;;;;;14.35;6.47;;;16.50;99.90;;;;;;5049719;28;20052;-63
2022/07/09 01:25:16;;;;;;;9.40;5.93;;;16.50;99.90;;;;;;5025078;28;20036;-62
2022/07/09 01:27:42;;;;;;;10.88;5.95;;;16.50;99.90;;;;;;5048980;28;20122;-63
2022/07/09 01:30:08;;;;;;;11.30;6.35;;;16.40;99.90;;;;;;5049798;28;20408;-62
2022/07/09 01:32:35;;;;;;;11.15;6.22;;;16.40;99.90;;;;;;5034093;28;20075;-62
2022/07/09 01:35:01;;;;;;;13.13;6.05;;;16.50;99.90;;;;;;5018103;28;20072;-62
2022/07/09 01:37:27;;;;;;;10.75;5.80;;;16.50;99.90;;;;;;5034347;28;20045;-62
2022/07/09 01:39:52;;;;;;;13.75;5.93;;;16.50;99.90;;;;;;5038461;28;20106;-63
2022/07/09 01:42:21;;;;;;;11.10;6.05;;;16.50;99.90;;;;;;5029916;28;20509;-62
2022/07/09 01:44:48;;;;;;;11.70;6.30;;;16.50;99.90;;;;;;5030866;28;20469;-62
2022/07/09 01:47:16;;;;;;;9.88;5.75;;;16.60;99.90;;;;;;5048050;28;20033;-62
2022/07/09 01:49:42;;;;;;;10.30;6.00;;;16.60;99.90;;;;;;5051184;28;20033;-62
2022/07/09 01:52:09;;;;;;;12.30;5.75;;;16.60;99.90;;;;;;5054966;28;20037;-63
2022/07/09 01:54:35;;;;;;;10.43;5.80;;;16.60;99.90;;;;;;5049340;28;20044;-61
2022/07/09 01:57:00;;;;;;;10.40;6.43;;;16.60;99.90;;;;;;5050251;28;20036;-62
2022/07/09 01:59:26;;;;;;;11.52;5.72;;;16.60;99.90;;;;;;5028252;28;20029;-62
2022/07/09 02:01:51;;;;;;;11.15;5.97;;;16.60;99.90;;;;;;5032740;28;20041;-62
2022/07/09 02:04:17;;;;;;;8.77;5.53;;;16.70;99.90;;;;;;5032702;28;20037;-63
2022/07/09 02:06:43;;;;;;;9.23;5.57;;;16.70;99.90;;;;;;5029745;28;20045;-63
2022/07/09 02:09:08;;;;;;;8.82;5.30;;;16.70;99.90;;;;;;5037859;28;20412;-64
2022/07/09 02:11:34;;;;;;;10.77;5.60;;;16.70;99.90;;;;;;5048521;28;20037;-62
2022/07/09 02:13:59;;;;;;;9.73;5.40;;;16.70;99.90;;;;;;5035313;28;20044;-62
2022/07/09 02:16:25;;;;;;;12.38;5.40;;;16.70;99.90;;;;;;5013938;28;20059;-63
2022/07/09 02:18:51;;;;;;;10.73;5.47;;;16.60;99.90;;;;;;5050449;28;20044;-62
2022/07/09 02:21:16;;;;;;;10.80;5.50;;;16.60;99.90;;;;;;5032339;28;20090;-63
2022/07/09 02:23:42;;;;;;;8.93;5.50;;;16.70;99.90;;;;;;5035183;28;20068;-63
2022/07/09 02:26:08;;;;;;;10.45;5.40;;;16.70;99.90;;;;;;5020650;28;20053;-62
2022/07/09 02:28:34;;;;;;;9.18;5.22;;;16.70;99.90;;;;;;5039690;28;20120;-63
2022/07/09 02:30:59;;;;;;;9.90;5.40;;;16.70;99.90;;;;;;5021654;28;20044;-62
2022/07/09 02:33:25;;;;;;;9.60;5.43;;;16.80;99.90;;;;;;5038804;28;20033;-63
2022/07/09 02:35:51;;;;;;;9.60;5.47;;;16.80;99.90;;;;;;5007845;28;20037;-62
2022/07/09 02:38:16;;;;;;;8.93;5.55;;;16.70;99.90;;;;;;5022851;28;20032;-62
2022/07/09 02:40:42;;;;;;;11.25;5.60;;;16.80;99.90;;;;;;5021916;28;20106;-62
2022/07/09 02:43:08;;;;;;;8.90;5.18;;;16.80;99.90;;;;;;5019107;28;20044;-63
2022/07/09 02:45:33;;;;;;;9.10;6.07;;;16.70;99.90;;;;;;5039429;28;20473;-62
2022/07/09 02:47:59;;;;;;;11.05;5.20;;;16.80;99.90;;;;;;5035210;28;20037;-65
2022/07/09 02:50:25;;;;;;;9.65;5.28;;;16.70;99.90;;;;;;5005654;28;20044;-63
2022/07/09 02:52:50;;;;;;;10.23;5.38;;;16.70;99.90;;;;;;5020212;28;20032;-63
2022/07/09 02:55:16;;;;;;;9.70;5.65;;;16.70;99.90;;;;;;5023893;28;20080;-63
2022/07/09 02:57:42;;;;;;;9.57;5.47;;;16.80;99.90;;;;;;5041362;28;20090;-63
2022/07/09 03:00:08;;;;;;;10.13;5.32;;;16.70;99.90;;;;;;5037797;28;20037;-64
2022/07/09 03:02:34;;;;;;;12.57;5.90;;;16.70;99.90;;;;;;5035621;28;20040;-63
2022/07/09 03:05:00;;;;;;;11.35;5.85;;;16.80;99.90;;;;;;5038013;28;20037;-61
2022/07/09 03:07:26;;;;;;;9.95;6.05;;;16.80;99.90;;;;;;5039623;28;20033;-62
2022/07/09 03:09:52;;;;;;;11.35;5.65;;;16.70;99.90;;;;;;5024624;28;20424;-61
2022/07/09 03:12:18;;;;;;;9.85;5.55;;;16.80;99.90;;;;;;5019465;28;20033;-61
2022/07/09 03:14:44;;;;;;;8.07;4.60;;;16.80;99.90;;;;;;5021121;28;20052;-62
2022/07/09 03:17:09;;;;;;;9.73;5.40;;;16.80;99.90;;;;;;5021618;28;20042;-63
2022/07/09 03:19:35;;;;;;;8.77;5.22;;;16.70;99.90;;;;;;5036950;28;20391;-62
2022/07/09 03:22:01;;;;;;;11.73;5.93;;;16.80;99.90;;;;;;5020881;28;20521;-62
2022/07/09 03:24:26;;;;;;;10.52;5.70;;;16.80;99.90;;;;;;5013162;28;20443;-63
2022/07/09 03:26:52;;;;;;;9.80;5.57;;;16.70;99.90;;;;;;5020479;28;20036;-62
2022/07/09 03:29:17;;;;;;;9.50;5.15;;;16.70;99.90;;;;;;5015927;28;20458;-62
2022/07/09 03:31:43;;;;;;;10.80;5.10;;;16.80;99.90;;;;;;5032956;28;20099;-62
2022/07/09 03:34:09;;;;;;;11.18;5.35;;;16.90;99.90;;;;;;5020292;28;20565;-63
2022/07/09 03:36:34;;;;;;;11.52;5.78;;;16.80;99.90;;;;;;5016988;28;20374;-63
2022/07/09 03:39:00;;;;;;;11.23;5.82;;;16.80;99.90;;;;;;5030158;28;20064;-62
2022/07/09 03:41:26;;;;;;;8.93;5.47;;;16.90;99.90;;;;;;5037780;28;20492;-63
2022/07/09 03:43:51;;;;;;;10.68;6.15;;;16.80;99.90;;;;;;5055009;28;20047;-63
2022/07/09 03:46:17;;;;;;;10.48;5.82;;;16.90;99.90;;;;;;5037387;28;20238;-62
2022/07/09 03:48:43;;;;;;;8.15;5.60;;;16.90;99.90;;;;;;5036767;28;20044;-63
2022/07/09 03:51:08;;;;;;;12.85;5.63;;;16.90;99.90;;;;;;5035727;28;20053;-63
2022/07/09 03:53:35;;;;;;;11.20;5.65;;;17.00;99.90;;;;;;5042092;28;20421;-63
2022/07/09 03:56:01;;;;;;;10.45;5.65;;;17.00;99.90;;;;;;5040903;28;20390;-66
2022/07/09 03:58:27;;;;;;;12.68;5.32;;;17.00;99.90;;;;;;5034943;28;20033;-62
2022/07/09 04:00:53;;;;;;;10.13;5.43;;;17.00;99.90;;;;;;5036794;28;20047;-63
2022/07/09 04:03:19;;;;;;;12.48;5.60;;;17.00;99.90;;;;;;5055669;28;20090;-62
2022/07/09 04:05:45;;;;;;;9.48;5.70;;;17.00;99.90;;;;;;5038533;28;20068;-62
2022/07/09 04:08:11;;;;;;;9.63;5.60;;;17.00;99.90;;;;;;5040524;28;20119;-63
2022/07/09 04:10:36;;;;;;;9.32;5.18;;;17.00;99.90;;;;;;5037613;28;20518;-62
2022/07/09 04:13:02;;;;;;;8.32;4.90;;;17.00;99.90;;;;;;5040975;28;20124;-63
2022/07/09 04:15:28;;;;;;;9.35;5.10;;;17.00;99.90;;;;;;5053770;28;20041;-62
2022/07/09 04:17:53;;;;;;;11.27;4.80;;;17.00;99.90;;;;;;5036190;28;20033;-62
2022/07/09 04:20:19;;;;;;;7.90;5.07;;;17.10;99.90;;;;;;5057331;28;20037;-62
2022/07/09 04:22:45;;;;;;;8.30;5.00;;;17.10;99.90;;;;;;5042903;28;20107;-63
2022/07/09 04:25:10;;;;;;;10.98;5.72;;;17.00;99.90;;;;;;5039528;28;20059;-63
2022/07/09 04:27:38;;;;;;;11.70;6.35;;;17.10;99.90;;;;;;5037095;28;20040;-62
2022/07/09 04:30:06;;;;;;;10.38;5.13;;;17.00;99.90;;;;;;5054101;28;20032;-63
2022/07/09 04:32:32;;;;;;;9.60;5.70;;;17.00;99.90;;;;;;5034789;28;20044;-62
2022/07/09 04:34:57;;;;;;;11.55;5.45;;;17.10;99.90;;;;;;5045298;28;20041;-63
2022/07/09 04:37:23;;;;;;;11.98;6.15;;;17.10;99.90;;;;;;5044287;28;20041;-62
2022/07/09 04:39:48;;;;;;;11.18;5.65;;;17.10;99.90;;;;;;5030091;28;20028;-63
2022/07/09 04:42:14;;;;;;;13.82;5.90;;;17.20;99.90;;;;;;5046522;28;20086;-63
2022/07/09 04:44:41;;;;;;;10.40;6.05;;;17.30;99.90;;;;;;5055593;28;20036;-62
2022/07/09 04:47:07;;;;;;;8.60;5.50;;;17.30;99.90;;;;;;5041242;28;20143;-63
2022/07/09 04:49:33;;;;;;;10.52;4.65;;;17.30;99.90;;;;;;5044013;28;20139;-62
2022/07/09 04:51:59;;;;;;;9.60;5.13;;;17.30;99.90;;;;;;5059235;28;20533;-62
2022/07/09 04:54:24;;;;;;;10.02;5.35;;;17.40;99.90;;;;;;5041137;28;20121;-63
2022/07/09 04:56:50;;;;;;;9.48;5.18;;;17.40;99.90;;;;;;5046131;28;20393;-62
2022/07/09 04:59:16;;;;;;;13.70;4.80;;;17.30;99.90;;;;;;5057318;28;20041;-62
2022/07/09 05:01:42;;;;;;;8.68;4.72;;;17.50;99.90;;;;;;5057630;28;20049;-62
2022/07/09 05:04:07;;;;;;;11.23;5.22;;;17.60;99.90;;;;;;5044070;28;20051;-63
2022/07/09 05:06:33;;;;;;;9.00;5.28;;;17.90;99.90;;;;;;5038692;28;20040;-62
2022/07/09 05:08:59;;;;;;;7.57;4.88;;;18.40;99.90;;;;;;5040330;28;20033;-62
2022/07/09 05:11:25;;;;;;;7.43;4.50;;;18.90;99.90;;;;;;5040900;28;20120;-62
2022/07/09 05:13:51;;;;;;;9.68;4.55;;;19.40;99.90;;;;;;5040310;28;20466;-62
2022/07/09 05:16:16;;;;;;;6.75;4.80;;;19.50;99.90;;;;;;5040368;28;20043;-64
2022/07/09 05:18:42;;;;;;;9.75;5.10;;;19.30;99.90;;;;;;5058365;28;20036;-63
2022/07/09 05:21:08;;;;;;;8.40;5.07;;;19.20;99.90;;;;;;5039604;28;20126;-62
2022/07/09 05:23:34;;;;;;;9.55;4.55;;;19.00;99.90;;;;;;5040369;28;20072;-62
2022/07/09 05:26:00;;;;;;;9.40;4.40;;;18.90;99.90;;;;;;5041548;28;20517;-63
2022/07/09 05:28:26;;;;;;;12.30;5.07;;;18.80;99.90;;;;;;5041166;28;20120;-62
2022/07/09 05:30:51;;;;;;;11.60;5.30;;;18.60;99.90;;;;;;5040986;28;20206;-63
2022/07/09 05:33:19;;;;;;;11.25;5.68;;;18.50;99.90;;;;;;5058986;28;20059;-62
2022/07/09 05:35:44;;;;;;;10.10;5.05;;;18.40;99.90;;;;;;5039104;28;20382;-62
2022/07/09 05:38:10;;;;;;;11.80;5.13;;;18.40;99.90;;;;;;5039383;28;20044;-62
2022/07/09 05:40:36;;;;;;;11.13;4.38;;;18.30;99.90;;;;;;5041176;28;20352;-62
2022/07/09 05:43:01;;;;;;;8.55;4.78;;;18.30;99.90;;;;;;5039036;28;20049;-62
2022/07/09 05:45:27;;;;;;;10.05;4.57;;;18.30;99.90;;;;;;5041429;28;20037;-62
2022/07/09 05:47:53;;;;;;;8.48;4.40;;;18.40;99.90;;;;;;5045884;28;20050;-62
2022/07/09 05:50:19;;;;;;;9.15;4.28;;;18.50;99.90;;;;;;5056787;28;20029;-63
2022/07/09 05:52:45;;;;;;;6.15;3.55;;;18.70;99.90;;;;;;5042484;28;20272;-62
2022/07/09 05:55:11;;;;;;;8.27;3.78;;;18.90;99.90;;;;;;5056621;28;20064;-62
2022/07/09 05:57:37;;;;;;;8.80;4.28;;;19.10;99.90;;;;;;5042858;28;20072;-63
2022/07/09 06:00:07;;;;;;;7.30;3.45;;;19.20;99.90;;;;;;5037465;28;20473;-62
2022/07/09 06:02:32;;;;;;;8.88;4.38;;;19.30;99.90;;;;;;5041476;28;20029;-62
2022/07/09 06:04:58;;;;;;;8.13;3.90;;;19.40;99.90;;;;;;5040360;28;20484;-62
2022/07/09 06:07:24;;;;;;;8.68;3.97;;;19.30;99.90;;;;;;5039426;28;20044;-62
2022/07/09 06:09:49;;;;;;;9.40;4.13;;;19.40;99.90;;;;;;5043092;28;20045;-61
2022/07/09 06:12:15;;;;;;;6.30;3.65;;;19.40;99.90;;;;;;5060109;28;20076;-62
2022/07/09 06:14:41;;;;;;;6.38;3.25;;;19.30;99.90;;;;;;5054444;28;20037;-61
2022/07/09 06:17:06;;;;;;;6.55;3.38;;;19.30;99.90;;;;;;5055205;28;20041;-61
2022/07/09 06:19:36;;;;;;;7.55;3.42;;;19.20;99.90;;;;;;5038374;28;20106;-61
2022/07/09 06:22:02;;;;;;;4.03;2.95;;;19.10;99.90;;;;;;5060028;28;20064;-62
2022/07/09 06:24:29;;;;;;;6.13;3.13;;;19.00;99.90;;;;;;5042083;28;20527;-62
2022/07/09 06:26:56;;;;;;;6.07;2.72;;;19.00;99.90;;;;;;5037796;28;20352;-62
2022/07/09 06:29:21;;;;;;;6.50;2.97;;;18.90;99.90;;;;;;5037354;28;20098;-62
2022/07/09 06:31:47;;;;;;;5.10;2.55;;;18.90;99.90;;;;;;5039055;28;20647;-62
2022/07/09 06:34:13;;;;;;;5.65;2.97;;;18.90;99.90;;;;;;5012460;28;20054;-62
2022/07/09 06:36:39;;;;;;;5.95;3.00;;;19.00;99.90;;;;;;5030480;28;20049;-62
2022/07/09 06:41:50;;;;;;;4.47;2.50;;;18.90;99.90;;;;;;5049132;28;20047;-61
2022/07/09 06:44:15;;;;;;;6.93;3.10;;;19.00;99.90;;;;;;5028956;28;20037;-61
2022/07/09 06:46:41;;;;;;;5.22;2.50;;;19.00;99.90;;;;;;5043032;28;20099;-62
2022/07/09 06:49:06;;;;;;;9.27;4.50;;;19.00;99.90;;;;;;5036673;28;20041;-61
2022/07/09 06:51:33;;;;;;;6.65;3.33;;;19.00;99.90;;;;;;5037367;28;20095;-61
2022/07/09 06:53:58;;;;;;;5.75;2.63;;;19.00;99.90;;;;;;5037343;28;20555;-61
2022/07/09 06:56:25;;;;;;;5.55;2.90;;;19.00;99.90;;;;;;5034451;28;20120;-62
2022/07/09 06:58:51;;;;;;;4.70;2.70;;;19.10;99.90;;;;;;5025217;28;20063;-62
2022/07/09 07:01:16;;;;;;;10.38;2.80;;;19.10;99.90;;;;;;5042106;28;20072;-61
2022/07/09 07:03:42;;;;;;;5.50;2.95;;;19.10;99.90;;;;;;5030898;28;20378;-61
2022/07/09 07:06:07;;;;;;;4.95;2.83;;;19.20;99.90;;;;;;5030241;28;20033;-63
2022/07/09 07:08:33;;;;;;;5.97;2.80;;;19.30;99.90;;;;;;5030514;28;20044;-62
2022/07/09 07:10:59;;;;;;;4.97;2.30;;;19.30;99.90;;;;;;5039071;28;20067;-61
2022/07/09 07:13:25;;;;;;;6.18;2.70;;;19.30;99.90;;;;;;5058403;28;20367;-62
2022/07/09 07:15:50;;;;;;;5.10;2.80;;;19.30;99.90;;;;;;4999048;28;20521;-61
2022/07/09 07:18:16;;;;;;;7.22;2.83;;;19.40;99.90;;;;;;5015190;28;20029;-61
2022/07/09 07:20:45;;;;;;;5.78;2.85;;;19.50;99.90;;;;;;5027599;28;20374;-62
2022/07/09 07:23:12;;;;;;;5.50;2.30;;;19.60;99.90;;;;;;5049672;28;20187;-62
2022/07/09 07:25:38;;;;;;;5.20;2.90;;;19.70;99.90;;;;;;5029218;28;20041;-61
2022/07/09 07:28:04;;;;;;;4.22;2.50;;;19.80;99.90;;;;;;5044042;28;20091;-61
2022/07/09 07:30:32;;;;;;;6.15;2.60;;;19.80;99.90;;;;;;5047057;28;20121;-60
2022/07/09 07:32:59;;;;;;;6.18;2.50;;;19.70;99.90;;;;;;5050551;28;20041;-62
2022/07/09 07:35:24;;;;;;;4.10;2.55;;;19.80;99.90;;;;;;5031649;28;20060;-62
2022/07/09 07:37:50;;;;;;;5.70;2.72;;;20.00;99.90;;;;;;5028565;28;20140;-61
2022/07/09 07:40:16;;;;;;;5.47;2.90;;;20.00;99.90;;;;;;5044054;28;20384;-61
2022/07/09 07:42:41;;;;;;;7.82;3.05;;;20.20;99.90;;;;;;5042314;28;20030;-62
2022/07/09 07:45:08;;;;;;;4.18;2.60;;;20.20;99.90;;;;;;5043370;28;20037;-61
2022/07/09 07:47:33;;;;;;;6.00;2.22;;;20.10;99.90;;;;;;5043930;28;20261;-61
2022/07/09 07:49:59;;;;;;;5.10;2.40;;;20.10;99.90;;;;;;5034882;28;20459;-61
2022/07/09 07:52:25;;;;;;;7.00;2.42;;;20.10;99.90;;;;;;5019615;28;20052;-62
2022/07/09 07:54:51;;;;;;;4.15;2.15;;;20.00;99.90;;;;;;5047524;28;20025;-62
2022/07/09 07:57:16;;;;;;;5.68;2.30;;;20.00;99.90;;;;;;5043004;28;20454;-61
2022/07/09 07:59:42;;;;;;;3.88;2.13;;;19.90;99.90;;;;;;5042488;28;20111;-61
2022/07/09 08:02:08;;;;;;;4.22;2.53;;;19.90;99.90;;;;;;5031868;28;20033;-61
2022/07/09 08:04:33;;;;;;;5.03;2.40;;;19.90;99.90;;;;;;5049358;28;20052;-61
2022/07/09 08:06:59;;;;;;;3.17;2.25;;;20.00;99.90;;;;;;5047238;28;20124;-62
2022/07/09 08:09:24;;;;;;;5.55;2.13;;;20.00;99.90;;;;;;5047412;28;20573;-61
2022/07/09 08:11:50;;;;;;;3.35;1.85;;;20.10;99.90;;;;;;5048868;28;20047;-61
2022/07/09 08:14:16;;;;;;;5.20;2.10;;;20.10;99.90;;;;;;5023803;28;20049;-62
2022/07/09 08:16:41;;;;;;;4.80;2.10;;;20.20;99.90;;;;;;5043371;28;20455;-61
2022/07/09 08:19:07;;;;;;;2.85;2.10;;;20.30;99.90;;;;;;5048800;28;20375;-61
2022/07/09 08:21:32;;;;;;;4.70;2.30;;;20.40;99.90;;;;;;5046793;28;20087;-62
2022/07/09 08:24:00;;;;;;;3.25;1.83;;;20.30;99.90;;;;;;5047303;28;20099;-62
2022/07/09 08:26:26;;;;;;;5.20;2.10;;;20.40;99.90;;;;;;5024753;28;20064;-62
2022/07/09 08:28:52;;;;;;;2.40;1.85;;;20.40;99.90;;;;;;5044674;28;20083;-61
2022/07/09 08:31:19;;;;;;;4.78;2.10;;;20.40;99.90;;;;;;5047357;28;20028;-62
2022/07/09 08:33:45;;;;;;;5.28;2.20;;;20.40;99.90;;;;;;5031874;28;20998;-62
2022/07/09 08:36:12;;;;;;;3.42;2.03;;;20.40;99.90;;;;;;5049478;28;20443;-62
2022/07/09 08:38:37;;;;;;;5.50;2.28;;;20.40;99.90;;;;;;5048701;28;20065;-61
2022/07/09 08:41:06;;;;;;;5.47;2.10;;;20.40;99.90;;;;;;5053627;28;20099;-62
2022/07/09 08:43:34;;;;;;;5.00;2.63;;;20.30;99.90;;;;;;5054674;28;20164;-62
2022/07/09 08:46:00;;;;;;;5.55;2.88;;;20.20;99.90;;;;;;5030362;28;20045;-62
2022/07/09 08:48:25;;;;;;;8.20;3.58;;;20.10;99.90;;;;;;5038732;28;20050;-61
2022/07/09 08:50:52;;;;;;;7.25;3.28;;;20.20;99.90;;;;;;5034921;28;20041;-62
2022/07/09 08:53:18;;;;;;;6.25;3.47;;;20.30;99.90;;;;;;5032301;28;20465;-61
2022/07/09 08:55:47;;;;;;;8.98;4.25;;;20.50;99.90;;;;;;5046184;28;20052;-61
2022/07/09 08:58:14;;;;;;;9.90;5.63;;;20.70;99.90;;;;;;5033418;28;20029;-63
2022/07/09 09:00:40;;;;;;;8.73;4.78;;;20.80;99.90;;;;;;5046264;28;20068;-64
2022/07/09 09:03:08;;;;;;;9.52;4.20;;;20.90;99.90;;;;;;5045088;28;20048;-63
2022/07/09 09:05:33;;;;;;;7.35;3.80;;;21.00;99.90;;;;;;5030589;28;20037;-63
2022/07/09 09:07:59;;;;;;;8.38;4.30;;;21.10;99.90;;;;;;5029858;28;20044;-62
2022/07/09 09:10:28;;;;;;;11.70;4.43;;;21.00;99.90;;;;;;5029273;28;20427;-62
2022/07/09 09:12:59;;;;;;;7.18;3.92;;;21.10;99.90;;;;;;5025014;28;20427;-63
2022/07/09 09:15:25;;;;;;;7.28;3.00;;;21.20;99.90;;;;;;5028405;28;20057;-63
2022/07/09 09:17:51;;;;;;;3.78;2.00;;;21.20;99.90;;;;;;5030587;28;20060;-63
2022/07/09 09:20:17;;;;;;;2.65;1.65;;;21.10;99.90;;;;;;5028943;28;20448;-62
2022/07/09 09:22:54;;;;;;;4.93;2.30;;;21.00;99.90;;;;;;5030592;28;20046;-64
2022/07/09 09:25:21;;;;;;;5.57;2.17;;;21.00;99.90;;;;;;5048901;28;20115;-62
2022/07/09 09:27:53;;;;;;;4.85;2.30;;;20.90;99.90;;;;;;5033113;28;20037;-63
2022/07/09 09:30:20;;;;;;;10.02;2.20;;;20.80;99.90;;;;;;5041907;28;20037;-63
2022/07/09 09:32:58;;;;;;;3.35;1.80;;;20.90;99.90;;;;;;5047497;28;20109;-63
2022/07/09 09:35:34;;;;;;;3.72;1.50;;;21.10;99.90;;;;;;5034943;28;20037;-63
2022/07/09 09:38:00;;;;;;;2.80;1.58;;;21.20;99.90;;;;;;5029296;28;20052;-63
2022/07/09 09:40:26;;;;;;;5.68;1.73;;;21.30;99.90;;;;;;5047598;28;20049;-63
2022/07/09 09:42:52;;;;;;;4.88;1.60;;;21.30;99.90;;;;;;5044660;28;20522;-62
2022/07/09 09:45:19;;;;;;;3.45;1.48;;;21.50;99.90;;;;;;5036641;28;20063;-63
2022/07/09 09:47:49;;;;;;;4.10;1.40;;;21.50;99.90;;;;;;5028187;28;20352;-62
2022/07/09 09:50:19;;;;;;;2.83;1.40;;;21.60;99.90;;;;;;5027251;28;20037;-63
2022/07/09 09:52:50;;;;;;;3.53;1.20;;;21.60;99.90;;;;;;5052549;28;20112;-61
2022/07/09 09:55:17;;;;;;;5.05;1.75;;;21.50;99.90;;;;;;5051082;28;20112;-62
2022/07/09 09:57:42;;;;;;;3.83;1.52;;;21.60;99.90;;;;;;5043584;28;20136;-63
2022/07/09 10:00:12;;;;;;;3.42;1.27;;;21.70;99.90;;;;;;5047708;28;20644;-66
2022/07/09 10:02:48;;;;;;;6.18;1.67;;;21.70;99.90;;;;;;5045930;28;20383;-65
2022/07/09 10:05:14;;;;;;;2.40;1.30;;;21.80;99.90;;;;;;5023809;28;20410;-64
2022/07/09 10:07:44;;;;;;;3.90;1.10;;;21.90;99.90;;;;;;5029644;28;20048;-63
2022/07/09 10:10:18;;;;;;;4.53;1.10;;;22.10;99.90;;;;;;5047801;28;20041;-63
2022/07/09 10:12:43;;;;;;;;;;;22.00;99.90;;;;;;5043769;28;20044;-63
2022/07/09 10:15:26;;;;;;;3.30;1.10;;;22.10;99.90;;;;;;5024422;28;19921;-63
2022/07/09 10:17:52;;;;;;;4.35;1.20;;;22.10;99.90;;;;;;5038789;28;20036;-63
2022/07/09 10:20:33;;;;;;;3.58;1.15;;;22.10;99.90;;;;;;5046022;28;20040;-63
2022/07/09 10:23:00;;;;;;;4.35;1.38;;;22.10;99.90;;;;;;5030685;28;20137;-63
2022/07/09 10:25:44;;;;;;;3.03;1.20;;;22.10;99.90;;;;;;5027744;28;20037;-62
2022/07/09 10:28:17;;;;;;;3.03;1.30;;;22.20;99.90;;;;;;5038583;28;20049;-64
2022/07/09 10:30:43;;;;;;;4.75;1.33;;;22.10;99.90;;;;;;5017273;28;20041;-62
2022/07/09 10:33:11;;;;;;;4.50;1.60;;;22.20;99.90;;;;;;5026135;28;20499;-63
2022/07/09 10:35:45;;;;;;;3.95;1.40;;;22.20;99.90;;;;;;5031146;28;20531;-62
2022/07/09 10:38:12;;;;;;;5.25;1.73;;;22.10;99.90;;;;;;5029254;28;20029;-62
2022/07/09 10:40:38;;;;;;;4.25;1.10;;;22.30;99.90;;;;;;5050891;28;20037;-63
2022/07/09 10:43:04;;;;;;;4.90;1.48;;;22.00;99.90;;;;;;5031877;28;20037;-62
2022/07/09 10:45:40;;;;;;;3.80;1.45;;;22.00;99.90;;;;;;5031064;28;20428;-62
2022/07/09 10:48:09;;;;;;;4.10;1.35;;;22.00;99.90;;;;;;5032329;28;20120;-63
2022/07/09 10:50:43;;;;;;;6.78;1.50;;;22.00;99.90;;;;;;5030206;28;20041;-62
2022/07/09 10:53:11;;;;;;;3.92;1.30;;;22.00;99.90;;;;;;5029221;28;20761;-64
2022/07/09 10:55:40;;;;;;;4.07;1.33;;;21.90;99.90;;;;;;5036051;28;20041;-62
2022/07/09 10:58:16;;;;;;;3.33;1.40;;;22.00;99.90;;;;;;5028155;28;20167;-63
2022/07/09 11:00:42;;;;;;;5.63;1.80;;;22.00;99.90;;;;;;5047809;28;20139;-63
2022/07/09 11:03:08;;;;;;;3.80;1.15;;;22.10;99.90;;;;;;5047059;28;20458;-63
2022/07/09 11:05:43;;;;;;;2.92;1.20;;;22.10;99.90;;;;;;5036232;28;20063;-63
2022/07/09 11:08:09;;;;;;;4.45;1.30;;;22.30;99.90;;;;;;5034034;28;20096;-62
2022/07/09 11:10:37;;;;;;;3.67;1.50;;;22.40;99.90;;;;;;5027978;28;20261;-64
2022/07/09 11:13:05;;;;;;;4.25;1.77;;;22.30;99.90;;;;;;5032981;28;20048;-63
2022/07/09 11:15:34;;;;;;;4.07;1.25;;;22.50;99.90;;;;;;5030182;28;20045;-63
2022/07/09 11:18:10;;;;;;;4.57;1.60;;;22.50;99.90;;;;;;5038681;28;20434;-62
2022/07/09 11:20:44;;;;;;;4.43;1.50;;;22.30;99.90;;;;;;5024051;28;20037;-63
2022/07/09 11:23:15;;;;;;;9.13;1.40;;;22.40;99.90;;;;;;5030531;28;20509;-62
2022/07/09 11:25:46;;;;;;;3.20;1.30;;;22.40;99.90;;;;;;5026786;28;20034;-62
2022/07/09 11:28:26;;;;;;;2.50;1.10;;;22.60;99.90;;;;;;5031560;28;20040;-61
2022/07/09 11:31:03;;;;;;;2.63;1.20;;;22.50;99.90;;;;;;5029579;28;20086;-60
2022/07/09 11:34:10;;;;;;;5.28;1.45;;;22.60;99.90;;;;;;5049518;28;20056;-61
2022/07/09 11:36:19;;;;;;;3.67;1.30;;;22.40;99.90;;;;;;5050841;28;20036;-62
2022/07/09 11:38:48;;;;;;;4.60;1.50;;;22.40;99.90;;;;;;5048197;28;20033;-62
2022/07/09 11:41:14;;;;;;;5.03;1.58;;;22.50;99.90;;;;;;5027790;28;20037;-61
2022/07/09 11:43:46;;;;;;;5.13;1.38;;;22.70;99.90;;;;;;5030301;28;20082;-61
2022/07/09 11:46:19;;;;;;;6.38;1.70;;;22.70;99.90;;;;;;5048144;28;20037;-61
2022/07/09 11:48:51;;;;;;;3.70;1.40;;;22.30;99.90;;;;;;5034496;28;20040;-62
2022/07/09 11:51:27;;;;;;;6.13;1.90;;;22.40;99.90;;;;;;5025561;28;20117;-62
2022/07/09 11:53:52;;;;;;;6.00;2.13;;;22.30;99.90;;;;;;5054018;28;20045;-61
2022/07/09 11:56:18;;;;;;;6.47;1.92;;;22.50;99.90;;;;;;5028909;28;20038;-63
2022/07/09 11:58:51;;;;;;;7.55;2.08;;;22.80;99.90;;;;;;5032229;28;20124;-60
2022/07/09 12:01:16;;;;;;;7.20;1.93;;;22.80;99.90;;;;;;5048439;28;20032;-61
2022/07/09 12:03:49;;;;;;;4.25;1.75;;;22.70;99.90;;;;;;5050906;28;20432;-61
2022/07/09 12:06:15;;;;;;;7.23;2.33;;;22.50;99.90;;;;;;5026379;28;20496;-61
2022/07/09 12:08:42;;;;;;;5.32;2.15;;;22.30;99.90;;;;;;5042898;28;20033;-61
2022/07/09 12:11:08;;;;;;;7.68;1.80;;;22.10;99.90;;;;;;5048394;28;20041;-61
2022/07/09 12:13:33;;;;;;;11.65;2.65;;;21.80;99.90;;;;;;5044753;28;20037;-62
2022/07/09 12:15:59;;;;;;;7.88;2.10;;;21.70;99.90;;;;;;5047689;28;20068;-61
2022/07/09 12:18:25;;;;;;;5.65;1.90;;;21.60;99.90;;;;;;5039920;28;20484;-61
2022/07/09 12:20:51;;;;;;;4.80;2.30;;;21.80;99.90;;;;;;5041179;28;20080;-62
2022/07/09 12:23:17;;;;;;;5.95;1.65;;;21.90;99.90;;;;;;5053413;28;20049;-62
2022/07/09 12:25:43;;;;;;;6.45;1.95;;;21.90;99.90;;;;;;5047793;28;20373;-62
2022/07/09 12:28:09;;;;;;;5.93;1.73;;;22.10;99.90;;;;;;5028476;28;20555;-61
2022/07/09 12:30:36;;;;;;;5.70;1.83;;;22.20;99.90;;;;;;5024836;28;20053;-62
2022/07/09 12:33:01;;;;;;;6.65;1.75;;;22.30;99.90;;;;;;5046125;28;20517;-61
2022/07/09 12:35:27;;;;;;;5.03;2.08;;;22.40;99.90;;;;;;5044597;28;20037;-61
2022/07/09 12:37:56;;;;;;;6.35;1.60;;;22.40;99.90;;;;;;5036577;28;20083;-62
2022/07/09 12:40:21;;;;;;;4.50;1.35;;;22.10;99.90;;;;;;5044679;28;20033;-61
2022/07/09 12:42:47;;;;;;;5.05;1.40;;;22.30;99.90;;;;;;5039433;28;20048;-61
2022/07/09 12:45:13;;;;;;;4.65;1.55;;;22.50;99.90;;;;;;5034724;28;20080;-62